createdAt,value
2022-11-17T00:02:20.853Z,18.50
2022-11-17T00:04:47.574Z,17.05
2022-11-17T00:07:14.581Z,18.10
2022-11-17T00:09:41.675Z,16.73
2022-11-17T00:12:31.477Z,18.15
2022-11-17T00:14:59.963Z,17.45
2022-11-17T00:17:26.793Z,17.17
2022-11-17T00:20:12.185Z,19.52
2022-11-17T00:22:38.897Z,17.77
2022-11-17T00:25:05.798Z,16.15
2022-11-17T00:29:59.217Z,17.63
2022-11-17T00:32:44.422Z,15.60
2022-11-17T00:35:11.238Z,17.15
2022-11-17T00:38:03.934Z,16.83
2022-11-17T00:40:30.852Z,16.25
2022-11-17T00:45:24.251Z,17.35
2022-11-17T00:47:50.952Z,17.10
2022-11-17T00:50:17.835Z,16.60
2022-11-17T00:55:11.366Z,16.92
2022-11-17T00:57:38.084Z,15.38
2022-11-17T01:00:05.341Z,16.35
2022-11-17T01:02:32.083Z,15.35
2022-11-17T01:04:58.818Z,18.38
2022-11-17T01:07:26.032Z,15.90
2022-11-17T01:09:52.836Z,15.52
2022-11-17T01:12:19.540Z,16.13
2022-11-17T01:14:46.814Z,16.98
2022-11-17T01:17:13.593Z,14.75
2022-11-17T01:19:40.390Z,15.90
2022-11-17T01:22:07.105Z,14.63
2022-11-17T01:24:33.867Z,16.00
2022-11-17T01:27:00.623Z,15.75
2022-11-17T01:29:27.417Z,14.55
2022-11-17T01:34:20.911Z,14.80
2022-11-17T01:39:32.855Z,15.82
2022-11-17T01:42:04.579Z,13.85
2022-11-17T01:45:21.912Z,16.30
2022-11-17T01:48:00.167Z,16.80
2022-11-17T01:50:37.357Z,14.32
2022-11-17T01:53:17.423Z,14.45
2022-11-17T01:56:01.560Z,15.93
2022-11-17T01:58:33.411Z,19.65
2022-11-17T02:01:00.413Z,14.98
2022-11-17T02:03:27.796Z,16.05
2022-11-17T02:06:08.581Z,15.90
2022-11-17T02:08:38.693Z,18.48
2022-11-17T02:11:12.923Z,24.00
2022-11-17T02:13:40.753Z,21.00
2022-11-17T02:16:12.591Z,17.60
2022-11-17T02:18:43.741Z,20.83
2022-11-17T02:21:32.475Z,17.42
2022-11-17T02:24:08.132Z,17.42
2022-11-17T02:26:59.986Z,16.48
2022-11-17T02:29:44.762Z,16.90
2022-11-17T02:32:19.065Z,21.02
2022-11-17T02:34:52.618Z,17.40
2022-11-17T02:37:23.532Z,18.65
2022-11-17T02:40:13.794Z,18.27
2022-11-17T02:43:02.244Z,17.90
2022-11-17T02:45:36.975Z,18.30
2022-11-17T02:48:13.691Z,18.73
2022-11-17T02:50:44.615Z,15.85
2022-11-17T02:53:12.679Z,17.45
2022-11-17T02:55:40.112Z,18.10
2022-11-17T02:58:12.718Z,19.00
2022-11-17T03:00:55.600Z,17.33
2022-11-17T03:03:34.519Z,18.80
2022-11-17T03:06:26.576Z,16.98
2022-11-17T03:09:09.097Z,16.98
2022-11-17T03:11:55.304Z,18.98
2022-11-17T03:14:45.765Z,19.38
2022-11-17T03:17:28.361Z,20.23
2022-11-17T03:20:00.876Z,17.58
2022-11-17T03:22:43.238Z,18.15
2022-11-17T03:25:14.856Z,16.77
2022-11-17T03:27:50.545Z,16.25
2022-11-17T03:30:18.564Z,15.70
2022-11-17T03:32:51.337Z,15.80
2022-11-17T03:35:23.057Z,16.85
2022-11-17T03:37:53.783Z,14.25
2022-11-17T03:40:29.547Z,13.98
2022-11-17T03:43:02.120Z,15.90
2022-11-17T03:45:32.068Z,14.95
2022-11-17T03:48:12.299Z,16.17
2022-11-17T03:50:47.879Z,15.38
2022-11-17T03:53:14.764Z,16.35
2022-11-17T03:55:56.815Z,15.45
2022-11-17T03:58:27.627Z,16.42
2022-11-17T04:00:58.195Z,16.70
2022-11-17T04:03:30.711Z,16.77
2022-11-17T04:05:57.516Z,14.98
2022-11-17T04:08:26.075Z,15.65
2022-11-17T04:11:11.256Z,15.93
2022-11-17T04:13:56.925Z,16.33
2022-11-17T04:16:23.679Z,16.42
2022-11-17T04:18:54.455Z,18.02
2022-11-17T04:21:24.200Z,16.90
2022-11-17T04:23:50.938Z,18.15
2022-11-17T04:26:36.372Z,18.67
2022-11-17T04:29:03.465Z,16.65
2022-11-17T04:31:31.589Z,15.70
2022-11-17T04:34:03.559Z,17.90
2022-11-17T04:36:32.638Z,19.08
2022-11-17T04:39:00.518Z,19.13
2022-11-17T04:41:47.607Z,19.55
2022-11-17T04:44:16.225Z,19.08
2022-11-17T04:46:46.743Z,17.55
2022-11-17T04:49:14.981Z,18.95
2022-11-17T04:51:41.997Z,18.48
2022-11-17T04:56:36.971Z,15.13
2022-11-17T04:59:04.323Z,17.00
2022-11-17T05:01:31.169Z,15.85
2022-11-17T05:04:03.221Z,19.42
2022-11-17T05:06:32.911Z,19.38
2022-11-17T05:09:02.256Z,31.55
2022-11-17T05:11:49.115Z,18.83
2022-11-17T05:14:18.740Z,29.30
2022-11-17T05:17:08.965Z,20.25
2022-11-17T05:19:41.148Z,31.98
2022-11-17T05:22:28.388Z,21.52
2022-11-17T05:24:55.969Z,19.70
2022-11-17T05:27:23.820Z,22.23
2022-11-17T05:29:50.832Z,19.60
2022-11-17T05:34:44.668Z,16.55
2022-11-17T05:37:11.506Z,22.23
2022-11-17T05:39:38.214Z,18.88
2022-11-17T05:42:05.059Z,32.63
2022-11-17T05:44:32.242Z,44.65
2022-11-17T05:46:59.203Z,43.85
2022-11-17T05:49:25.952Z,98.40
2022-11-17T05:51:53.218Z,112.05
2022-11-17T05:54:20.509Z,52.83
2022-11-17T05:56:56.867Z,56.22
2022-11-17T05:59:29.139Z,22.10
2022-11-17T06:02:23.767Z,22.02
2022-11-17T06:04:51.819Z,20.60
2022-11-17T06:07:19.322Z,20.27
2022-11-17T06:09:46.818Z,18.60
2022-11-17T06:12:15.186Z,18.90
2022-11-17T06:14:41.981Z,17.45
2022-11-17T06:17:25.736Z,19.23
2022-11-17T06:20:00.847Z,15.75
2022-11-17T06:22:27.716Z,16.92
2022-11-17T06:24:55.462Z,16.92
2022-11-17T06:27:22.686Z,17.27
2022-11-17T06:29:50.025Z,169.52
2022-11-17T06:32:18.724Z,25.33
2022-11-17T06:34:53.852Z,14.45
2022-11-17T06:37:22.279Z,13.93
2022-11-17T06:39:49.106Z,15.15
2022-11-17T06:42:15.876Z,15.10
2022-11-17T06:44:42.668Z,15.38
2022-11-17T06:47:09.425Z,17.77
2022-11-17T06:49:36.108Z,16.33
2022-11-17T06:52:02.944Z,21.02
2022-11-17T06:56:57.153Z,16.65
2022-11-17T06:59:23.947Z,20.27
2022-11-17T07:01:50.781Z,15.82
2022-11-17T07:04:17.532Z,17.85
2022-11-17T07:06:44.395Z,22.45
2022-11-17T07:09:11.198Z,20.95
2022-11-17T07:11:38.037Z,19.27
2022-11-17T07:14:04.907Z,21.48
2022-11-17T07:16:32.628Z,24.58
2022-11-17T07:18:59.513Z,52.05
2022-11-17T07:21:26.502Z,27.92
2022-11-17T07:23:53.276Z,21.25
2022-11-17T07:26:20.093Z,23.90
2022-11-17T07:28:46.843Z,24.80
2022-11-17T07:31:13.639Z,20.55
2022-11-17T07:33:40.442Z,27.98
2022-11-17T07:36:09.870Z,24.60
2022-11-17T07:38:38.505Z,23.98
2022-11-17T07:41:06.910Z,24.88
2022-11-17T07:43:34.534Z,34.65
2022-11-17T07:46:10.479Z,24.52
2022-11-17T07:48:37.759Z,22.35
2022-11-17T07:51:05.563Z,22.80
2022-11-17T07:53:34.957Z,26.70
2022-11-17T07:56:06.827Z,23.90
2022-11-17T07:58:34.156Z,27.75
2022-11-17T08:01:05.863Z,25.60
2022-11-17T08:03:32.882Z,23.02
2022-11-17T08:08:34.055Z,21.85
2022-11-17T08:11:12.575Z,19.60
2022-11-17T08:13:40.811Z,20.17
2022-11-17T08:16:09.311Z,22.60
2022-11-17T08:18:37.076Z,18.83
2022-11-17T08:21:11.791Z,23.60
2022-11-17T08:23:38.665Z,21.33
2022-11-17T08:26:06.923Z,23.25
2022-11-17T08:28:34.653Z,24.05
2022-11-17T08:31:03.861Z,22.45
2022-11-17T08:33:31.667Z,20.67
2022-11-17T08:36:02.707Z,20.48
2022-11-17T08:38:30.413Z,19.75
2022-11-17T08:40:58.123Z,20.17
2022-11-17T08:43:25.260Z,19.45
2022-11-17T08:45:52.166Z,20.23
2022-11-17T08:50:45.684Z,21.35
2022-11-17T08:53:17.752Z,23.60
2022-11-17T08:55:44.930Z,36.25
2022-11-17T08:58:12.578Z,29.67
2022-11-17T09:00:40.627Z,27.30
2022-11-17T09:03:09.029Z,28.65
2022-11-17T09:05:40.395Z,31.25
2022-11-17T09:08:37.837Z,34.40
2022-11-17T09:10:55.080Z,27.23
2022-11-17T09:13:21.864Z,31.80
2022-11-17T09:15:48.765Z,25.83
2022-11-17T09:20:45.895Z,31.95
2022-11-17T09:23:13.076Z,29.92
2022-11-17T09:25:39.945Z,30.38
2022-11-17T09:30:33.479Z,33.75
2022-11-17T09:33:00.288Z,29.17
2022-11-17T09:35:27.072Z,30.85
2022-11-17T09:37:59.235Z,36.90
2022-11-17T09:40:26.110Z,33.03
2022-11-17T09:45:28.158Z,35.90
2022-11-17T09:48:41.597Z,35.22
2022-11-17T09:51:12.156Z,32.40
2022-11-17T09:53:54.268Z,44.22
2022-11-17T09:56:21.708Z,45.83
2022-11-17T09:58:53.041Z,46.67
2022-11-17T10:01:21.996Z,49.80
2022-11-17T10:03:51.042Z,50.75
2022-11-17T10:06:21.471Z,50.42
2022-11-17T10:09:02.770Z,48.92
2022-11-17T10:11:32.351Z,41.80
2022-11-17T10:14:02.562Z,40.67
2022-11-17T10:16:29.465Z,40.58
2022-11-17T10:21:23.989Z,40.17
2022-11-17T10:23:58.530Z,37.67
2022-11-17T10:26:26.361Z,35.30
2022-11-17T10:29:09.320Z,35.13
2022-11-17T10:31:44.310Z,37.42
2022-11-17T10:34:31.937Z,35.25
2022-11-17T10:37:28.955Z,38.53
2022-11-17T10:40:22.202Z,37.53
2022-11-17T10:43:04.660Z,44.92
2022-11-17T10:45:32.554Z,38.67
2022-11-17T10:48:31.061Z,34.47
2022-11-17T10:51:01.867Z,36.75
2022-11-17T10:53:34.987Z,35.63
2022-11-17T10:56:31.161Z,39.63
2022-11-17T10:59:00.770Z,40.55
2022-11-17T11:01:28.868Z,41.00
2022-11-17T11:03:56.028Z,37.92
2022-11-17T11:06:29.640Z,40.17
2022-11-17T11:08:58.572Z,40.30
2022-11-17T11:11:45.430Z,38.67
2022-11-17T11:14:20.032Z,40.03
2022-11-17T11:16:49.244Z,41.20
2022-11-17T11:19:18.295Z,39.17
2022-11-17T11:21:45.070Z,37.38
2022-11-17T11:24:26.680Z,37.33
2022-11-17T11:27:15.980Z,37.10
2022-11-17T11:30:02.417Z,36.22
2022-11-17T11:32:31.898Z,38.45
2022-11-17T11:35:32.842Z,37.28
2022-11-17T11:38:12.539Z,35.00
2022-11-17T11:40:42.554Z,35.72
2022-11-17T11:43:52.881Z,34.28
2022-11-17T11:46:38.457Z,35.83
2022-11-17T11:49:28.026Z,33.17
2022-11-17T11:51:54.860Z,32.72
2022-11-17T11:56:55.212Z,33.05
2022-11-17T11:59:36.610Z,30.15
2022-11-17T12:02:14.054Z,28.65
2022-11-17T12:04:49.987Z,28.20
2022-11-17T12:07:43.615Z,30.75
2022-11-17T12:10:30.117Z,27.48
2022-11-17T12:12:58.240Z,32.33
2022-11-17T12:15:25.946Z,30.95
2022-11-17T12:17:52.667Z,31.63
2022-11-17T12:20:47.814Z,31.15
2022-11-17T12:23:29.675Z,34.67
2022-11-17T12:25:59.046Z,29.35
2022-11-17T12:28:35.841Z,31.67
2022-11-17T12:31:11.635Z,32.50
2022-11-17T12:33:53.299Z,32.65
2022-11-17T12:36:31.777Z,35.85
2022-11-17T12:39:04.090Z,42.08
2022-11-17T12:41:49.348Z,39.42
2022-11-17T12:44:37.890Z,36.90
2022-11-17T12:47:17.022Z,40.47
2022-11-17T12:50:11.657Z,40.70
2022-11-17T12:52:54.098Z,42.17
2022-11-17T12:55:32.827Z,40.47
2022-11-17T12:58:10.925Z,39.33
2022-11-17T13:00:52.764Z,36.90
2022-11-17T13:03:46.261Z,35.45
2022-11-17T13:09:06.346Z,40.65
2022-11-17T13:11:33.690Z,38.20
2022-11-17T13:14:17.571Z,36.47
2022-11-17T13:16:48.418Z,34.03
2022-11-17T13:19:32.831Z,41.72
2022-11-17T13:22:13.862Z,35.45
2022-11-17T13:24:43.127Z,37.35
2022-11-17T13:27:22.871Z,34.67
2022-11-17T13:29:50.759Z,34.00
2022-11-17T13:32:28.408Z,36.42
2022-11-17T13:34:57.605Z,32.05
2022-11-17T13:37:26.805Z,30.15
2022-11-17T13:40:02.330Z,32.00
2022-11-17T13:42:33.900Z,31.23
2022-11-17T13:45:03.417Z,29.23
2022-11-17T13:47:39.506Z,28.38
2022-11-17T13:50:23.686Z,27.45
2022-11-17T13:53:24.277Z,27.10
2022-11-17T13:55:52.062Z,31.05
2022-11-17T13:58:42.200Z,27.73
2022-11-17T14:01:13.296Z,31.80
2022-11-17T14:03:42.125Z,28.13
2022-11-17T14:06:11.955Z,25.83
2022-11-17T14:08:40.066Z,26.30
2022-11-17T14:11:12.868Z,23.75
2022-11-17T14:13:46.867Z,23.80
2022-11-17T14:16:27.397Z,21.60
2022-11-17T14:19:01.738Z,21.73
2022-11-17T14:21:30.335Z,26.58
2022-11-17T14:24:10.111Z,22.92
2022-11-17T14:26:41.596Z,24.00
2022-11-17T14:29:12.893Z,25.38
2022-11-17T14:31:39.855Z,29.05
2022-11-17T14:34:06.630Z,25.58
2022-11-17T14:39:01.829Z,31.25
2022-11-17T14:41:29.128Z,26.05
2022-11-17T14:43:56.004Z,27.35
2022-11-17T14:46:25.096Z,31.92
2022-11-17T14:48:52.566Z,29.98
2022-11-17T14:51:20.683Z,26.55
2022-11-17T14:53:47.962Z,25.73
2022-11-17T14:56:18.030Z,29.92
2022-11-17T14:58:46.664Z,25.00
2022-11-17T15:01:17.968Z,26.73
2022-11-17T15:03:45.315Z,34.17
2022-11-17T15:06:19.301Z,27.02
2022-11-17T15:08:47.379Z,29.35
2022-11-17T15:11:17.448Z,31.88
2022-11-17T15:13:44.503Z,27.85
2022-11-17T15:16:12.065Z,31.88
2022-11-17T15:18:39.071Z,32.08
2022-11-17T15:21:08.121Z,32.17
2022-11-17T15:23:37.919Z,32.17
2022-11-17T15:26:06.124Z,31.42
2022-11-17T15:28:32.941Z,34.63
2022-11-17T15:33:26.447Z,31.23
2022-11-17T15:38:27.298Z,29.30
2022-11-17T15:40:54.973Z,29.83
2022-11-17T15:43:25.600Z,35.53
2022-11-17T15:45:59.382Z,30.95
2022-11-17T15:48:28.572Z,31.15
2022-11-17T15:50:59.994Z,35.05
2022-11-17T15:53:33.242Z,30.75
2022-11-17T15:56:21.013Z,31.80
2022-11-17T15:58:49.435Z,38.55
2022-11-17T16:01:17.249Z,33.88
2022-11-17T16:03:45.499Z,33.85
2022-11-17T16:06:12.974Z,37.83
2022-11-17T16:08:40.254Z,40.63
2022-11-17T16:11:07.729Z,39.97
2022-11-17T16:13:34.625Z,39.67
2022-11-17T16:16:01.573Z,39.95
2022-11-17T16:18:28.983Z,36.17
2022-11-17T16:21:04.330Z,40.83
2022-11-17T16:23:37.239Z,35.83
2022-11-17T16:26:04.115Z,35.78
2022-11-17T16:28:30.814Z,36.85
2022-11-17T16:30:57.615Z,37.65
2022-11-17T16:35:51.136Z,33.22
2022-11-17T16:40:44.774Z,37.28
2022-11-17T16:43:13.049Z,37.63
2022-11-17T16:45:45.217Z,38.78
2022-11-17T16:48:12.878Z,36.78
2022-11-17T16:50:42.049Z,35.30
2022-11-17T16:53:09.318Z,38.22
2022-11-17T16:55:37.352Z,39.88
2022-11-17T16:58:05.905Z,38.38
2022-11-17T17:00:34.857Z,40.15
2022-11-17T17:03:02.358Z,35.38
2022-11-17T17:05:29.516Z,39.67
2022-11-17T17:07:57.116Z,41.35
2022-11-17T17:10:24.740Z,43.33
2022-11-17T17:12:51.689Z,41.78
2022-11-17T17:15:18.648Z,39.47
2022-11-17T17:17:45.395Z,39.83
2022-11-17T17:22:38.963Z,38.45
2022-11-17T17:27:32.800Z,43.42
2022-11-17T17:29:59.539Z,39.63
2022-11-17T17:32:26.334Z,42.72
2022-11-17T17:37:20.018Z,42.75
2022-11-17T17:39:46.890Z,39.78
2022-11-17T17:44:40.616Z,40.00
2022-11-17T17:47:07.624Z,46.83
2022-11-17T17:49:34.357Z,37.28
2022-11-17T17:52:01.124Z,44.40
2022-11-17T17:54:27.881Z,39.38
2022-11-17T17:56:57.088Z,40.15
2022-11-17T17:59:23.931Z,42.70
2022-11-17T18:04:18.323Z,42.25
2022-11-17T18:09:18.780Z,45.53
2022-11-17T18:11:49.527Z,40.53
2022-11-17T18:14:26.215Z,41.50
2022-11-17T18:16:53.817Z,41.55
2022-11-17T18:19:20.854Z,40.67
2022-11-17T18:21:47.615Z,39.63
2022-11-17T18:24:14.460Z,40.55
2022-11-17T18:29:14.897Z,38.13
2022-11-17T18:31:42.576Z,43.38
2022-11-17T18:34:15.976Z,41.50
2022-11-17T18:36:42.802Z,43.05
2022-11-17T18:41:36.876Z,44.50
2022-11-17T18:44:04.188Z,45.40
2022-11-17T18:46:32.644Z,46.83
2022-11-17T18:49:00.243Z,45.08
2022-11-17T18:51:29.459Z,44.83
2022-11-17T18:53:58.749Z,44.70
2022-11-17T18:56:27.931Z,43.97
2022-11-17T18:58:55.355Z,47.28
2022-11-17T19:01:24.581Z,45.08
2022-11-17T19:03:53.514Z,47.00
2022-11-17T19:06:22.328Z,45.95
2022-11-17T19:08:49.774Z,43.47
2022-11-17T19:11:18.115Z,44.90
2022-11-17T19:13:45.771Z,46.92
2022-11-17T19:16:19.040Z,43.20
2022-11-17T19:18:47.470Z,46.45
2022-11-17T19:21:19.981Z,40.97
2022-11-17T19:23:51.795Z,43.22
2022-11-17T19:26:25.059Z,42.67
2022-11-17T19:28:58.834Z,46.17
2022-11-17T19:31:26.241Z,43.17
2022-11-17T19:33:54.177Z,45.78
2022-11-17T19:36:23.658Z,46.80
2022-11-17T19:38:52.553Z,42.25
2022-11-17T19:41:21.788Z,42.53
2022-11-17T19:43:48.835Z,45.13
2022-11-17T19:46:17.098Z,48.70
2022-11-17T19:48:44.563Z,43.70
2022-11-17T19:51:22.793Z,43.72
2022-11-17T19:53:51.834Z,46.88
2022-11-17T19:56:19.111Z,44.25
2022-11-17T19:58:46.510Z,48.97
2022-11-17T20:01:18.823Z,42.55
2022-11-17T20:03:46.489Z,48.13
2022-11-17T20:06:15.561Z,42.20
2022-11-17T20:08:42.577Z,42.45
2022-11-17T20:11:15.400Z,43.03
2022-11-17T20:13:42.598Z,44.72
2022-11-17T20:16:19.860Z,46.17
2022-11-17T20:18:50.827Z,45.10
2022-11-17T20:21:18.193Z,45.13
2022-11-17T20:23:45.161Z,44.88
2022-11-17T20:26:15.090Z,45.38
2022-11-17T20:28:42.202Z,44.42
2022-11-17T20:31:11.021Z,46.97
2022-11-17T20:33:42.109Z,45.53
2022-11-17T20:36:17.899Z,49.97
2022-11-17T20:38:44.922Z,48.10
2022-11-17T20:41:11.695Z,50.45
2022-11-17T20:46:05.427Z,44.97
2022-11-17T20:48:35.299Z,47.35
2022-11-17T20:51:07.391Z,49.85
2022-11-17T20:53:34.535Z,47.90
2022-11-17T20:56:03.468Z,49.40
2022-11-17T20:58:30.683Z,49.97
2022-11-17T21:00:57.908Z,47.47
2022-11-17T21:03:26.491Z,48.65
2022-11-17T21:05:59.174Z,50.97
2022-11-17T21:08:29.649Z,45.05
2022-11-17T21:10:57.763Z,46.35
2022-11-17T21:13:25.615Z,45.85
2022-11-17T21:16:12.715Z,44.25
2022-11-17T21:18:45.643Z,46.85
2022-11-17T21:21:12.658Z,48.20
2022-11-17T21:23:40.413Z,45.78
2022-11-17T21:26:08.731Z,45.92
2022-11-17T21:28:36.940Z,47.30
2022-11-17T21:31:10.275Z,48.72
2022-11-17T21:33:37.640Z,46.97
2022-11-17T21:36:16.203Z,48.80
2022-11-17T21:38:44.496Z,42.90
2022-11-17T21:41:17.428Z,51.28
2022-11-17T21:43:46.197Z,45.88
2022-11-17T21:46:16.585Z,52.65
2022-11-17T21:48:44.191Z,46.55
2022-11-17T21:51:19.370Z,50.15
2022-11-17T21:53:46.965Z,42.20
2022-11-17T21:56:13.965Z,44.50
2022-11-17T21:58:41.319Z,45.22
2022-11-17T22:01:11.164Z,47.75
2022-11-17T22:03:38.774Z,50.08
2022-11-17T22:06:10.356Z,46.42
2022-11-17T22:08:41.672Z,46.53
2022-11-17T22:11:14.711Z,49.83
2022-11-17T22:13:42.589Z,47.75
2022-11-17T22:16:15.340Z,50.08
2022-11-17T22:18:42.213Z,49.13
2022-11-17T22:21:09.592Z,60.50
2022-11-17T22:23:36.441Z,58.25
2022-11-17T22:28:32.113Z,51.75
2022-11-17T22:30:58.880Z,59.70
2022-11-17T22:33:25.738Z,53.03
2022-11-17T22:38:19.335Z,48.63
2022-11-17T22:43:15.441Z,48.40
2022-11-17T22:45:42.836Z,50.92
2022-11-17T22:48:09.879Z,49.30
2022-11-17T22:50:36.809Z,49.80
2022-11-17T22:53:03.864Z,50.75
2022-11-17T22:55:33.573Z,47.40
2022-11-17T22:58:00.587Z,48.03
2022-11-17T23:00:27.777Z,48.10
2022-11-17T23:02:54.786Z,49.78
2022-11-17T23:05:21.476Z,46.05
2022-11-17T23:07:48.213Z,46.00
2022-11-17T23:10:14.995Z,45.42
2022-11-17T23:15:08.973Z,43.33
2022-11-17T23:17:35.733Z,47.10
2022-11-17T23:20:02.468Z,43.85
2022-11-17T23:24:57.351Z,41.92
2022-11-17T23:27:24.096Z,39.95
2022-11-17T23:29:50.790Z,39.47
2022-11-17T23:32:17.576Z,40.97
2022-11-17T23:37:11.442Z,36.00
2022-11-17T23:39:38.322Z,36.90
2022-11-17T23:42:05.508Z,36.78
2022-11-17T23:44:32.288Z,35.25
2022-11-17T23:49:25.750Z,38.47
2022-11-17T23:54:19.320Z,33.50
2022-11-17T23:59:12.885Z,35.97
